sensor_id;sensor_type;location;lat;lon;timestamp;P1;durP1;ratioP1;P2;durP2;ratioP2
9536;SDS011;4807;48.024;11.726;2022-11-15T00:01:37;3.23;;;2.50;;
9536;SDS011;4807;48.024;11.726;2022-11-15T00:05:04;4.10;;;2.67;;
9536;SDS011;4807;48.024;11.726;2022-11-15T00:08:32;2.63;;;2.17;;
9536;SDS011;4807;48.024;11.726;2022-11-15T00:11:59;2.67;;;2.33;;
9536;SDS011;4807;48.024;11.726;2022-11-15T00:15:29;2.83;;;2.33;;
9536;SDS011;4807;48.024;11.726;2022-11-15T00:18:56;2.80;;;2.33;;
9536;SDS011;4807;48.024;11.726;2022-11-15T00:22:24;3.07;;;2.70;;
9536;SDS011;4807;48.024;11.726;2022-11-15T00:25:56;3.93;;;2.93;;
9536;SDS011;4807;48.024;11.726;2022-11-15T00:29:24;3.97;;;2.70;;
9536;SDS011;4807;48.024;11.726;2022-11-15T00:32:52;3.37;;;2.90;;
9536;SDS011;4807;48.024;11.726;2022-11-15T00:36:20;2.63;;;2.23;;
9536;SDS011;4807;48.024;11.726;2022-11-15T00:39:47;4.17;;;2.70;;
9536;SDS011;4807;48.024;11.726;2022-11-15T00:43:14;3.60;;;2.77;;
9536;SDS011;4807;48.024;11.726;2022-11-15T00:46:41;4.13;;;2.77;;
9536;SDS011;4807;48.024;11.726;2022-11-15T00:50:10;2.63;;;2.40;;
9536;SDS011;4807;48.024;11.726;2022-11-15T00:53:39;3.07;;;2.77;;
9536;SDS011;4807;48.024;11.726;2022-11-15T00:57:06;2.77;;;2.30;;
9536;SDS011;4807;48.024;11.726;2022-11-15T01:00:33;3.37;;;2.57;;
9536;SDS011;4807;48.024;11.726;2022-11-15T01:04:01;2.90;;;2.27;;
9536;SDS011;4807;48.024;11.726;2022-11-15T01:07:29;2.47;;;2.00;;
9536;SDS011;4807;48.024;11.726;2022-11-15T01:10:59;2.77;;;2.10;;
9536;SDS011;4807;48.024;11.726;2022-11-15T01:14:27;2.40;;;2.20;;
9536;SDS011;4807;48.024;11.726;2022-11-15T01:17:55;2.43;;;1.90;;
9536;SDS011;4807;48.024;11.726;2022-11-15T01:21:22;2.87;;;2.63;;
9536;SDS011;4807;48.024;11.726;2022-11-15T01:24:50;3.73;;;1.90;;
9536;SDS011;4807;48.024;11.726;2022-11-15T01:28:18;2.30;;;1.80;;
9536;SDS011;4807;48.024;11.726;2022-11-15T01:31:45;2.10;;;1.90;;
9536;SDS011;4807;48.024;11.726;2022-11-15T01:35:12;2.90;;;2.00;;
9536;SDS011;4807;48.024;11.726;2022-11-15T01:38:40;1.93;;;1.73;;
9536;SDS011;4807;48.024;11.726;2022-11-15T01:42:10;2.30;;;1.97;;
9536;SDS011;4807;48.024;11.726;2022-11-15T01:45:39;2.63;;;2.30;;
9536;SDS011;4807;48.024;11.726;2022-11-15T01:49:10;2.70;;;2.23;;
9536;SDS011;4807;48.024;11.726;2022-11-15T01:52:40;2.00;;;1.80;;
9536;SDS011;4807;48.024;11.726;2022-11-15T01:56:09;2.03;;;1.83;;
9536;SDS011;4807;48.024;11.726;2022-11-15T01:59:43;1.70;;;1.60;;
9536;SDS011;4807;48.024;11.726;2022-11-15T02:03:12;2.57;;;1.60;;
9536;SDS011;4807;48.024;11.726;2022-11-15T02:06:41;2.43;;;1.70;;
9536;SDS011;4807;48.024;11.726;2022-11-15T02:10:13;1.93;;;1.40;;
9536;SDS011;4807;48.024;11.726;2022-11-15T02:13:43;1.57;;;1.30;;
9536;SDS011;4807;48.024;11.726;2022-11-15T02:17:16;1.90;;;1.40;;
9536;SDS011;4807;48.024;11.726;2022-11-15T02:21:00;2.50;;;1.33;;
9536;SDS011;4807;48.024;11.726;2022-11-15T02:24:54;1.50;;;1.40;;
9536;SDS011;4807;48.024;11.726;2022-11-15T02:28:44;2.40;;;1.83;;
9536;SDS011;4807;48.024;11.726;2022-11-15T02:32:20;1.70;;;1.60;;
9536;SDS011;4807;48.024;11.726;2022-11-15T02:35:57;1.80;;;1.67;;
9536;SDS011;4807;48.024;11.726;2022-11-15T02:39:28;1.83;;;1.60;;
9536;SDS011;4807;48.024;11.726;2022-11-15T02:47:26;1.17;;;1.07;;
9536;SDS011;4807;48.024;11.726;2022-11-15T02:50:55;1.27;;;1.17;;
9536;SDS011;4807;48.024;11.726;2022-11-15T02:54:24;1.20;;;1.10;;
9536;SDS011;4807;48.024;11.726;2022-11-15T02:57:55;1.23;;;1.10;;
9536;SDS011;4807;48.024;11.726;2022-11-15T03:01:38;1.07;;;0.90;;
9536;SDS011;4807;48.024;11.726;2022-11-15T03:05:20;1.50;;;1.40;;
9536;SDS011;4807;48.024;11.726;2022-11-15T03:08:59;2.17;;;1.60;;
9536;SDS011;4807;48.024;11.726;2022-11-15T03:12:35;2.40;;;1.83;;
9536;SDS011;4807;48.024;11.726;2022-11-15T03:16:08;1.60;;;1.50;;
9536;SDS011;4807;48.024;11.726;2022-11-15T03:19:43;1.40;;;1.30;;
9536;SDS011;4807;48.024;11.726;2022-11-15T03:23:14;1.57;;;1.40;;
9536;SDS011;4807;48.024;11.726;2022-11-15T03:26:43;1.83;;;1.73;;
9536;SDS011;4807;48.024;11.726;2022-11-15T03:30:14;2.23;;;1.53;;
9536;SDS011;4807;48.024;11.726;2022-11-15T03:33:41;2.17;;;1.73;;
9536;SDS011;4807;48.024;11.726;2022-11-15T03:37:09;1.77;;;1.50;;
9536;SDS011;4807;48.024;11.726;2022-11-15T03:40:40;2.23;;;1.53;;
9536;SDS011;4807;48.024;11.726;2022-11-15T03:44:12;1.40;;;1.30;;
9536;SDS011;4807;48.024;11.726;2022-11-15T03:47:48;2.00;;;1.20;;
9536;SDS011;4807;48.024;11.726;2022-11-15T03:51:19;1.43;;;1.30;;
9536;SDS011;4807;48.024;11.726;2022-11-15T03:54:47;1.47;;;1.37;;
9536;SDS011;4807;48.024;11.726;2022-11-15T03:58:17;1.53;;;1.23;;
9536;SDS011;4807;48.024;11.726;2022-11-15T04:01:45;1.53;;;1.33;;
9536;SDS011;4807;48.024;11.726;2022-11-15T04:05:12;1.17;;;1.07;;
9536;SDS011;4807;48.024;11.726;2022-11-15T04:08:39;1.37;;;1.27;;
9536;SDS011;4807;48.024;11.726;2022-11-15T04:12:07;1.20;;;1.00;;
9536;SDS011;4807;48.024;11.726;2022-11-15T04:15:36;1.30;;;1.20;;
9536;SDS011;4807;48.024;11.726;2022-11-15T04:19:03;1.73;;;1.63;;
9536;SDS011;4807;48.024;11.726;2022-11-15T04:22:48;1.40;;;1.30;;
9536;SDS011;4807;48.024;11.726;2022-11-15T04:26:34;1.30;;;1.20;;
9536;SDS011;4807;48.024;11.726;2022-11-15T04:30:02;2.07;;;1.33;;
9536;SDS011;4807;48.024;11.726;2022-11-15T04:33:31;1.10;;;0.97;;
9536;SDS011;4807;48.024;11.726;2022-11-15T04:36:59;1.23;;;1.13;;
9536;SDS011;4807;48.024;11.726;2022-11-15T04:40:38;1.77;;;1.10;;
9536;SDS011;4807;48.024;11.726;2022-11-15T04:44:05;1.30;;;1.13;;
9536;SDS011;4807;48.024;11.726;2022-11-15T04:47:32;2.40;;;1.67;;
9536;SDS011;4807;48.024;11.726;2022-11-15T04:51:01;2.53;;;1.30;;
9536;SDS011;4807;48.024;11.726;2022-11-15T04:54:29;3.57;;;1.40;;
9536;SDS011;4807;48.024;11.726;2022-11-15T04:57:59;1.50;;;1.40;;
9536;SDS011;4807;48.024;11.726;2022-11-15T05:01:27;1.80;;;1.40;;
9536;SDS011;4807;48.024;11.726;2022-11-15T05:04:54;1.63;;;1.53;;
9536;SDS011;4807;48.024;11.726;2022-11-15T05:08:22;5.10;;;3.17;;
9536;SDS011;4807;48.024;11.726;2022-11-15T05:11:49;2.13;;;1.80;;
9536;SDS011;4807;48.024;11.726;2022-11-15T05:15:16;2.50;;;2.00;;
9536;SDS011;4807;48.024;11.726;2022-11-15T05:18:44;1.60;;;1.50;;
9536;SDS011;4807;48.024;11.726;2022-11-15T05:22:11;1.93;;;1.73;;
9536;SDS011;4807;48.024;11.726;2022-11-15T05:25:40;2.30;;;1.87;;
9536;SDS011;4807;48.024;11.726;2022-11-15T05:29:09;2.33;;;2.13;;
9536;SDS011;4807;48.024;11.726;2022-11-15T05:32:37;2.07;;;1.97;;
9536;SDS011;4807;48.024;11.726;2022-11-15T05:36:06;3.20;;;2.03;;
9536;SDS011;4807;48.024;11.726;2022-11-15T05:39:38;1.20;;;1.10;;
9536;SDS011;4807;48.024;11.726;2022-11-15T05:43:06;1.70;;;1.60;;
9536;SDS011;4807;48.024;11.726;2022-11-15T05:46:35;2.10;;;2.00;;
9536;SDS011;4807;48.024;11.726;2022-11-15T05:50:05;2.83;;;2.20;;
9536;SDS011;4807;48.024;11.726;2022-11-15T05:53:33;7.13;;;4.30;;
9536;SDS011;4807;48.024;11.726;2022-11-15T05:57:00;4.27;;;3.13;;
9536;SDS011;4807;48.024;11.726;2022-11-15T06:00:30;4.87;;;3.10;;
9536;SDS011;4807;48.024;11.726;2022-11-15T06:03:57;2.57;;;2.37;;
9536;SDS011;4807;48.024;11.726;2022-11-15T06:07:25;4.17;;;2.40;;
9536;SDS011;4807;48.024;11.726;2022-11-15T06:10:52;5.43;;;3.00;;
9536;SDS011;4807;48.024;11.726;2022-11-15T06:14:20;4.40;;;3.43;;
9536;SDS011;4807;48.024;11.726;2022-11-15T06:17:48;2.87;;;2.67;;
9536;SDS011;4807;48.024;11.726;2022-11-15T06:21:16;5.23;;;3.63;;
9536;SDS011;4807;48.024;11.726;2022-11-15T06:24:43;9.37;;;5.40;;
9536;SDS011;4807;48.024;11.726;2022-11-15T06:28:10;10.67;;;6.20;;
9536;SDS011;4807;48.024;11.726;2022-11-15T06:31:37;8.40;;;5.00;;
9536;SDS011;4807;48.024;11.726;2022-11-15T06:35:06;4.30;;;3.37;;
9536;SDS011;4807;48.024;11.726;2022-11-15T06:38:34;4.57;;;4.00;;
9536;SDS011;4807;48.024;11.726;2022-11-15T06:42:01;5.50;;;3.30;;
9536;SDS011;4807;48.024;11.726;2022-11-15T06:45:28;3.20;;;2.90;;
9536;SDS011;4807;48.024;11.726;2022-11-15T06:48:55;2.47;;;2.17;;
9536;SDS011;4807;48.024;11.726;2022-11-15T06:52:24;3.37;;;2.37;;
9536;SDS011;4807;48.024;11.726;2022-11-15T06:55:51;3.20;;;3.00;;
9536;SDS011;4807;48.024;11.726;2022-11-15T06:59:19;2.20;;;2.00;;
9536;SDS011;4807;48.024;11.726;2022-11-15T07:02:47;3.47;;;2.93;;
9536;SDS011;4807;48.024;11.726;2022-11-15T07:06:15;2.60;;;2.40;;
9536;SDS011;4807;48.024;11.726;2022-11-15T07:09:43;4.20;;;2.30;;
9536;SDS011;4807;48.024;11.726;2022-11-15T07:13:12;2.83;;;2.23;;
9536;SDS011;4807;48.024;11.726;2022-11-15T07:16:40;2.73;;;1.70;;
9536;SDS011;4807;48.024;11.726;2022-11-15T07:20:07;3.10;;;2.70;;
9536;SDS011;4807;48.024;11.726;2022-11-15T07:23:35;3.63;;;2.97;;
9536;SDS011;4807;48.024;11.726;2022-11-15T07:27:05;3.40;;;2.67;;
9536;SDS011;4807;48.024;11.726;2022-11-15T07:30:32;3.17;;;2.93;;
9536;SDS011;4807;48.024;11.726;2022-11-15T07:34:02;3.37;;;3.07;;
9536;SDS011;4807;48.024;11.726;2022-11-15T07:37:30;4.60;;;4.20;;
9536;SDS011;4807;48.024;11.726;2022-11-15T07:40:57;3.73;;;3.40;;
9536;SDS011;4807;48.024;11.726;2022-11-15T07:44:27;3.70;;;2.50;;
9536;SDS011;4807;48.024;11.726;2022-11-15T07:47:54;2.73;;;2.50;;
9536;SDS011;4807;48.024;11.726;2022-11-15T07:51:22;3.90;;;3.13;;
9536;SDS011;4807;48.024;11.726;2022-11-15T07:54:49;3.00;;;2.70;;
9536;SDS011;4807;48.024;11.726;2022-11-15T07:58:16;3.20;;;2.90;;
9536;SDS011;4807;48.024;11.726;2022-11-15T08:01:45;4.43;;;2.97;;
9536;SDS011;4807;48.024;11.726;2022-11-15T08:05:13;3.23;;;2.40;;
9536;SDS011;4807;48.024;11.726;2022-11-15T08:08:40;2.97;;;2.37;;
9536;SDS011;4807;48.024;11.726;2022-11-15T08:12:07;3.83;;;2.37;;
9536;SDS011;4807;48.024;11.726;2022-11-15T08:15:34;2.67;;;2.20;;
9536;SDS011;4807;48.024;11.726;2022-11-15T08:19:04;3.73;;;2.20;;
9536;SDS011;4807;48.024;11.726;2022-11-15T08:22:31;1.80;;;1.10;;
9536;SDS011;4807;48.024;11.726;2022-11-15T08:26:00;2.40;;;1.40;;
9536;SDS011;4807;48.024;11.726;2022-11-15T08:29:28;2.83;;;2.50;;
9536;SDS011;4807;48.024;11.726;2022-11-15T08:32:56;2.67;;;2.47;;
9536;SDS011;4807;48.024;11.726;2022-11-15T08:36:25;2.93;;;2.10;;
9536;SDS011;4807;48.024;11.726;2022-11-15T08:40:05;1.60;;;1.47;;
9536;SDS011;4807;48.024;11.726;2022-11-15T08:43:34;2.00;;;1.53;;
9536;SDS011;4807;48.024;11.726;2022-11-15T08:47:01;1.60;;;1.33;;
9536;SDS011;4807;48.024;11.726;2022-11-15T08:50:29;1.53;;;1.27;;
9536;SDS011;4807;48.024;11.726;2022-11-15T08:53:58;1.20;;;1.10;;
9536;SDS011;4807;48.024;11.726;2022-11-15T08:57:27;1.67;;;1.57;;
9536;SDS011;4807;48.024;11.726;2022-11-15T09:00:55;2.00;;;1.60;;
9536;SDS011;4807;48.024;11.726;2022-11-15T09:04:22;2.27;;;2.07;;
9536;SDS011;4807;48.024;11.726;2022-11-15T09:07:52;2.53;;;2.10;;
9536;SDS011;4807;48.024;11.726;2022-11-15T09:11:21;2.10;;;2.00;;
9536;SDS011;4807;48.024;11.726;2022-11-15T09:14:48;1.80;;;1.33;;
9536;SDS011;4807;48.024;11.726;2022-11-15T09:18:15;1.63;;;1.53;;
9536;SDS011;4807;48.024;11.726;2022-11-15T09:21:46;3.13;;;1.90;;
9536;SDS011;4807;48.024;11.726;2022-11-15T09:25:13;1.73;;;1.63;;
9536;SDS011;4807;48.024;11.726;2022-11-15T09:28:41;1.93;;;1.83;;
9536;SDS011;4807;48.024;11.726;2022-11-15T09:32:09;1.87;;;1.73;;
9536;SDS011;4807;48.024;11.726;2022-11-15T09:35:36;1.97;;;1.87;;
9536;SDS011;4807;48.024;11.726;2022-11-15T09:39:04;2.33;;;1.60;;
9536;SDS011;4807;48.024;11.726;2022-11-15T09:42:35;1.50;;;1.40;;
9536;SDS011;4807;48.024;11.726;2022-11-15T09:46:25;2.33;;;1.40;;
9536;SDS011;4807;48.024;11.726;2022-11-15T09:50:01;1.93;;;1.20;;
9536;SDS011;4807;48.024;11.726;2022-11-15T09:53:20;1.93;;;1.37;;
9536;SDS011;4807;48.024;11.726;2022-11-15T09:57:04;2.43;;;1.10;;
9536;SDS011;4807;48.024;11.726;2022-11-15T10:00:22;2.13;;;1.40;;
9536;SDS011;4807;48.024;11.726;2022-11-15T10:03:56;1.80;;;1.57;;
9536;SDS011;4807;48.024;11.726;2022-11-15T10:07:06;1.70;;;1.60;;
9536;SDS011;4807;48.024;11.726;2022-11-15T10:10:27;2.23;;;1.50;;
9536;SDS011;4807;48.024;11.726;2022-11-15T10:13:44;1.87;;;1.70;;
9536;SDS011;4807;48.024;11.726;2022-11-15T10:20:54;2.47;;;1.83;;
9536;SDS011;4807;48.024;11.726;2022-11-15T10:24:10;2.40;;;1.47;;
9536;SDS011;4807;48.024;11.726;2022-11-15T10:27:20;2.17;;;1.13;;
9536;SDS011;4807;48.024;11.726;2022-11-15T10:30:32;2.00;;;1.90;;
9536;SDS011;4807;48.024;11.726;2022-11-15T10:33:43;2.60;;;1.13;;
9536;SDS011;4807;48.024;11.726;2022-11-15T10:36:56;1.20;;;1.10;;
9536;SDS011;4807;48.024;11.726;2022-11-15T10:40:14;1.17;;;1.07;;
9536;SDS011;4807;48.024;11.726;2022-11-15T10:43:27;0.93;;;0.90;;
9536;SDS011;4807;48.024;11.726;2022-11-15T10:46:35;1.00;;;1.00;;
9536;SDS011;4807;48.024;11.726;2022-11-15T10:49:55;1.90;;;1.30;;
9536;SDS011;4807;48.024;11.726;2022-11-15T10:53:17;1.13;;;1.07;;
9536;SDS011;4807;48.024;11.726;2022-11-15T10:56:31;1.60;;;1.50;;
9536;SDS011;4807;48.024;11.726;2022-11-15T10:59:42;1.70;;;1.60;;
9536;SDS011;4807;48.024;11.726;2022-11-15T11:02:58;2.50;;;1.70;;
9536;SDS011;4807;48.024;11.726;2022-11-15T11:06:10;1.67;;;1.50;;
9536;SDS011;4807;48.024;11.726;2022-11-15T11:09:25;1.87;;;1.70;;
9536;SDS011;4807;48.024;11.726;2022-11-15T11:12:39;1.50;;;1.40;;
9536;SDS011;4807;48.024;11.726;2022-11-15T11:15:47;1.40;;;1.20;;
9536;SDS011;4807;48.024;11.726;2022-11-15T11:19:08;1.50;;;1.03;;
9536;SDS011;4807;48.024;11.726;2022-11-15T11:22:37;3.27;;;1.60;;
9536;SDS011;4807;48.024;11.726;2022-11-15T11:26:08;2.93;;;1.43;;
9536;SDS011;4807;48.024;11.726;2022-11-15T11:29:46;1.33;;;1.23;;
9536;SDS011;4807;48.024;11.726;2022-11-15T11:33:12;2.20;;;1.93;;
9536;SDS011;4807;48.024;11.726;2022-11-15T11:36:31;3.43;;;1.33;;
9536;SDS011;4807;48.024;11.726;2022-11-15T11:39:55;1.67;;;1.57;;
9536;SDS011;4807;48.024;11.726;2022-11-15T11:43:19;1.80;;;1.63;;
9536;SDS011;4807;48.024;11.726;2022-11-15T11:46:47;1.73;;;1.60;;
9536;SDS011;4807;48.024;11.726;2022-11-15T11:50:03;2.53;;;1.90;;
9536;SDS011;4807;48.024;11.726;2022-11-15T11:53:25;4.33;;;1.80;;
9536;SDS011;4807;48.024;11.726;2022-11-15T11:56:39;1.90;;;1.73;;
9536;SDS011;4807;48.024;11.726;2022-11-15T11:59:53;2.80;;;2.00;;
9536;SDS011;4807;48.024;11.726;2022-11-15T12:03:19;1.50;;;1.40;;
9536;SDS011;4807;48.024;11.726;2022-11-15T12:06:37;1.63;;;1.50;;
9536;SDS011;4807;48.024;11.726;2022-11-15T12:09:54;1.67;;;1.30;;
9536;SDS011;4807;48.024;11.726;2022-11-15T12:13:10;1.57;;;1.23;;
9536;SDS011;4807;48.024;11.726;2022-11-15T12:16:26;4.30;;;1.63;;
9536;SDS011;4807;48.024;11.726;2022-11-15T12:19:37;1.83;;;1.00;;
9536;SDS011;4807;48.024;11.726;2022-11-15T12:22:47;1.57;;;1.20;;
9536;SDS011;4807;48.024;11.726;2022-11-15T12:26:04;2.47;;;1.10;;
9536;SDS011;4807;48.024;11.726;2022-11-15T12:29:20;1.27;;;1.07;;
9536;SDS011;4807;48.024;11.726;2022-11-15T12:32:36;1.70;;;1.53;;
9536;SDS011;4807;48.024;11.726;2022-11-15T12:35:57;1.93;;;1.67;;
9536;SDS011;4807;48.024;11.726;2022-11-15T12:39:09;1.63;;;1.40;;
9536;SDS011;4807;48.024;11.726;2022-11-15T12:42:34;1.60;;;1.50;;
9536;SDS011;4807;48.024;11.726;2022-11-15T12:45:49;1.77;;;1.10;;
9536;SDS011;4807;48.024;11.726;2022-11-15T12:48:59;3.03;;;1.77;;
9536;SDS011;4807;48.024;11.726;2022-11-15T12:52:09;2.43;;;1.50;;
9536;SDS011;4807;48.024;11.726;2022-11-15T12:55:30;3.13;;;1.60;;
9536;SDS011;4807;48.024;11.726;2022-11-15T12:58:41;1.30;;;1.20;;
9536;SDS011;4807;48.024;11.726;2022-11-15T13:01:57;1.80;;;1.30;;
9536;SDS011;4807;48.024;11.726;2022-11-15T13:13:02;1.70;;;1.40;;
9536;SDS011;4807;48.024;11.726;2022-11-15T13:16:17;1.57;;;1.13;;
9536;SDS011;4807;48.024;11.726;2022-11-15T13:19:28;1.53;;;1.20;;
9536;SDS011;4807;48.024;11.726;2022-11-15T13:22:41;1.43;;;1.33;;
9536;SDS011;4807;48.024;11.726;2022-11-15T13:26:04;2.50;;;2.10;;
9536;SDS011;4807;48.024;11.726;2022-11-15T13:29:22;3.03;;;2.20;;
9536;SDS011;4807;48.024;11.726;2022-11-15T13:32:31;3.47;;;1.80;;
9536;SDS011;4807;48.024;11.726;2022-11-15T13:35:40;2.07;;;1.33;;
9536;SDS011;4807;48.024;11.726;2022-11-15T13:39:01;3.40;;;1.77;;
9536;SDS011;4807;48.024;11.726;2022-11-15T13:42:13;1.50;;;1.40;;
9536;SDS011;4807;48.024;11.726;2022-11-15T13:45:24;1.97;;;1.40;;
9536;SDS011;4807;48.024;11.726;2022-11-15T13:48:33;2.97;;;1.80;;
9536;SDS011;4807;48.024;11.726;2022-11-15T13:51:42;2.70;;;1.50;;
9536;SDS011;4807;48.024;11.726;2022-11-15T13:54:58;1.20;;;1.00;;
9536;SDS011;4807;48.024;11.726;2022-11-15T13:58:12;1.40;;;1.20;;
9536;SDS011;4807;48.024;11.726;2022-11-15T14:01:27;2.60;;;1.23;;
9536;SDS011;4807;48.024;11.726;2022-11-15T14:04:44;1.40;;;1.30;;
9536;SDS011;4807;48.024;11.726;2022-11-15T14:07:57;1.57;;;1.47;;
9536;SDS011;4807;48.024;11.726;2022-11-15T14:11:12;1.27;;;1.13;;
9536;SDS011;4807;48.024;11.726;2022-11-15T14:14:24;1.27;;;1.17;;
9536;SDS011;4807;48.024;11.726;2022-11-15T14:17:35;1.60;;;1.50;;
9536;SDS011;4807;48.024;11.726;2022-11-15T14:21:05;1.80;;;1.50;;
9536;SDS011;4807;48.024;11.726;2022-11-15T14:24:15;2.10;;;1.40;;
9536;SDS011;4807;48.024;11.726;2022-11-15T14:27:26;2.90;;;1.80;;
9536;SDS011;4807;48.024;11.726;2022-11-15T14:30:36;1.50;;;1.40;;
9536;SDS011;4807;48.024;11.726;2022-11-15T14:33:46;1.47;;;1.30;;
9536;SDS011;4807;48.024;11.726;2022-11-15T14:36:55;1.90;;;1.53;;
9536;SDS011;4807;48.024;11.726;2022-11-15T14:40:04;2.40;;;2.20;;
9536;SDS011;4807;48.024;11.726;2022-11-15T14:43:17;2.47;;;1.80;;
9536;SDS011;4807;48.024;11.726;2022-11-15T14:46:25;3.33;;;1.70;;
9536;SDS011;4807;48.024;11.726;2022-11-15T14:49:33;2.80;;;2.10;;
9536;SDS011;4807;48.024;11.726;2022-11-15T14:52:42;1.93;;;1.70;;
9536;SDS011;4807;48.024;11.726;2022-11-15T14:55:51;2.23;;;1.67;;
9536;SDS011;4807;48.024;11.726;2022-11-15T14:59:00;2.33;;;1.90;;
9536;SDS011;4807;48.024;11.726;2022-11-15T15:02:09;2.37;;;2.13;;
9536;SDS011;4807;48.024;11.726;2022-11-15T15:05:25;7.70;;;4.87;;
9536;SDS011;4807;48.024;11.726;2022-11-15T15:08:39;3.90;;;3.43;;
9536;SDS011;4807;48.024;11.726;2022-11-15T15:11:48;2.73;;;2.47;;
9536;SDS011;4807;48.024;11.726;2022-11-15T15:14:57;2.07;;;1.80;;
9536;SDS011;4807;48.024;11.726;2022-11-15T15:18:05;3.50;;;2.20;;
9536;SDS011;4807;48.024;11.726;2022-11-15T15:21:18;2.50;;;2.30;;
9536;SDS011;4807;48.024;11.726;2022-11-15T15:24:29;5.43;;;3.37;;
9536;SDS011;4807;48.024;11.726;2022-11-15T15:27:38;5.80;;;3.60;;
9536;SDS011;4807;48.024;11.726;2022-11-15T15:30:47;8.23;;;4.27;;
9536;SDS011;4807;48.024;11.726;2022-11-15T15:33:56;7.10;;;4.40;;
9536;SDS011;4807;48.024;11.726;2022-11-15T15:37:08;6.83;;;4.07;;
9536;SDS011;4807;48.024;11.726;2022-11-15T15:40:32;6.20;;;4.50;;
9536;SDS011;4807;48.024;11.726;2022-11-15T15:43:41;3.13;;;2.57;;
9536;SDS011;4807;48.024;11.726;2022-11-15T15:46:51;10.67;;;6.57;;
9536;SDS011;4807;48.024;11.726;2022-11-15T15:50:00;7.90;;;6.63;;
9536;SDS011;4807;48.024;11.726;2022-11-15T15:53:09;8.93;;;5.43;;
9536;SDS011;4807;48.024;11.726;2022-11-15T15:56:18;9.20;;;6.13;;
9536;SDS011;4807;48.024;11.726;2022-11-15T15:59:27;6.83;;;6.13;;
9536;SDS011;4807;48.024;11.726;2022-11-15T16:02:36;10.03;;;5.90;;
9536;SDS011;4807;48.024;11.726;2022-11-15T16:05:46;8.97;;;5.47;;
9536;SDS011;4807;48.024;11.726;2022-11-15T16:08:54;8.33;;;5.90;;
9536;SDS011;4807;48.024;11.726;2022-11-15T16:12:19;10.33;;;6.50;;
9536;SDS011;4807;48.024;11.726;2022-11-15T16:15:29;11.20;;;7.53;;
9536;SDS011;4807;48.024;11.726;2022-11-15T16:18:40;11.10;;;8.63;;
9536;SDS011;4807;48.024;11.726;2022-11-15T16:21:49;8.63;;;6.80;;
9536;SDS011;4807;48.024;11.726;2022-11-15T16:24:58;8.17;;;6.40;;
9536;SDS011;4807;48.024;11.726;2022-11-15T16:28:10;8.27;;;5.73;;
9536;SDS011;4807;48.024;11.726;2022-11-15T16:31:25;8.87;;;5.87;;
9536;SDS011;4807;48.024;11.726;2022-11-15T16:34:34;6.00;;;5.17;;
9536;SDS011;4807;48.024;11.726;2022-11-15T16:37:49;5.13;;;4.60;;
9536;SDS011;4807;48.024;11.726;2022-11-15T16:40:57;5.57;;;4.07;;
9536;SDS011;4807;48.024;11.726;2022-11-15T16:44:06;4.33;;;3.83;;
9536;SDS011;4807;48.024;11.726;2022-11-15T16:47:15;7.33;;;4.33;;
9536;SDS011;4807;48.024;11.726;2022-11-15T16:50:28;6.03;;;5.30;;
9536;SDS011;4807;48.024;11.726;2022-11-15T16:53:40;6.03;;;4.90;;
9536;SDS011;4807;48.024;11.726;2022-11-15T16:56:49;10.87;;;8.27;;
9536;SDS011;4807;48.024;11.726;2022-11-15T16:59:59;9.90;;;8.90;;
9536;SDS011;4807;48.024;11.726;2022-11-15T17:03:07;10.57;;;9.30;;
9536;SDS011;4807;48.024;11.726;2022-11-15T17:06:17;11.97;;;8.57;;
9536;SDS011;4807;48.024;11.726;2022-11-15T17:09:25;10.03;;;7.60;;
9536;SDS011;4807;48.024;11.726;2022-11-15T17:12:34;6.83;;;6.13;;
9536;SDS011;4807;48.024;11.726;2022-11-15T17:15:43;7.63;;;6.50;;
9536;SDS011;4807;48.024;11.726;2022-11-15T17:18:51;10.87;;;7.97;;
9536;SDS011;4807;48.024;11.726;2022-11-15T17:22:01;9.03;;;6.00;;
9536;SDS011;4807;48.024;11.726;2022-11-15T17:25:09;4.37;;;3.47;;
9536;SDS011;4807;48.024;11.726;2022-11-15T17:28:18;3.90;;;3.60;;
9536;SDS011;4807;48.024;11.726;2022-11-15T17:31:26;4.80;;;4.20;;
9536;SDS011;4807;48.024;11.726;2022-11-15T17:34:39;7.43;;;4.43;;
9536;SDS011;4807;48.024;11.726;2022-11-15T17:37:48;5.83;;;4.30;;
9536;SDS011;4807;48.024;11.726;2022-11-15T17:41:01;4.27;;;3.27;;
9536;SDS011;4807;48.024;11.726;2022-11-15T17:44:11;7.03;;;4.10;;
9536;SDS011;4807;48.024;11.726;2022-11-15T17:47:20;6.57;;;5.00;;
9536;SDS011;4807;48.024;11.726;2022-11-15T17:50:29;10.50;;;6.97;;
9536;SDS011;4807;48.024;11.726;2022-11-15T17:53:40;6.73;;;5.23;;
9536;SDS011;4807;48.024;11.726;2022-11-15T17:56:50;5.87;;;4.50;;
9536;SDS011;4807;48.024;11.726;2022-11-15T17:59:59;6.83;;;4.53;;
9536;SDS011;4807;48.024;11.726;2022-11-15T18:03:09;9.87;;;6.47;;
9536;SDS011;4807;48.024;11.726;2022-11-15T18:06:18;7.43;;;5.90;;
9536;SDS011;4807;48.024;11.726;2022-11-15T18:09:30;4.90;;;3.83;;
9536;SDS011;4807;48.024;11.726;2022-11-15T18:12:38;5.80;;;4.40;;
9536;SDS011;4807;48.024;11.726;2022-11-15T18:15:48;9.93;;;5.93;;
9536;SDS011;4807;48.024;11.726;2022-11-15T18:19:02;16.57;;;7.37;;
9536;SDS011;4807;48.024;11.726;2022-11-15T18:22:14;6.53;;;5.93;;
9536;SDS011;4807;48.024;11.726;2022-11-15T18:25:25;8.43;;;6.63;;
9536;SDS011;4807;48.024;11.726;2022-11-15T18:28:35;9.80;;;8.20;;
9536;SDS011;4807;48.024;11.726;2022-11-15T18:31:47;15.17;;;13.67;;
9536;SDS011;4807;48.024;11.726;2022-11-15T18:34:56;12.13;;;10.93;;
9536;SDS011;4807;48.024;11.726;2022-11-15T18:38:04;8.43;;;7.33;;
9536;SDS011;4807;48.024;11.726;2022-11-15T18:41:14;7.73;;;6.50;;
9536;SDS011;4807;48.024;11.726;2022-11-15T18:44:26;10.80;;;9.17;;
9536;SDS011;4807;48.024;11.726;2022-11-15T18:47:35;10.23;;;8.67;;
9536;SDS011;4807;48.024;11.726;2022-11-15T18:50:45;15.60;;;10.87;;
9536;SDS011;4807;48.024;11.726;2022-11-15T18:53:59;17.57;;;11.83;;
9536;SDS011;4807;48.024;11.726;2022-11-15T18:57:11;14.03;;;9.50;;
9536;SDS011;4807;48.024;11.726;2022-11-15T19:00:19;13.37;;;9.70;;
9536;SDS011;4807;48.024;11.726;2022-11-15T19:03:30;9.80;;;8.73;;
9536;SDS011;4807;48.024;11.726;2022-11-15T19:06:40;15.33;;;8.70;;
9536;SDS011;4807;48.024;11.726;2022-11-15T19:09:51;10.80;;;8.33;;
9536;SDS011;4807;48.024;11.726;2022-11-15T19:13:02;8.47;;;6.80;;
9536;SDS011;4807;48.024;11.726;2022-11-15T19:16:11;5.37;;;4.87;;
9536;SDS011;4807;48.024;11.726;2022-11-15T19:19:22;6.73;;;5.23;;
9536;SDS011;4807;48.024;11.726;2022-11-15T19:22:33;5.93;;;5.43;;
9536;SDS011;4807;48.024;11.726;2022-11-15T19:25:41;6.97;;;4.60;;
9536;SDS011;4807;48.024;11.726;2022-11-15T19:28:52;4.40;;;4.00;;
9536;SDS011;4807;48.024;11.726;2022-11-15T19:32:04;6.77;;;4.40;;
9536;SDS011;4807;48.024;11.726;2022-11-15T19:35:13;13.00;;;9.10;;
9536;SDS011;4807;48.024;11.726;2022-11-15T19:38:22;9.67;;;6.40;;
9536;SDS011;4807;48.024;11.726;2022-11-15T19:41:30;6.07;;;5.47;;
9536;SDS011;4807;48.024;11.726;2022-11-15T19:44:41;5.43;;;4.87;;
9536;SDS011;4807;48.024;11.726;2022-11-15T19:47:50;4.83;;;4.30;;
9536;SDS011;4807;48.024;11.726;2022-11-15T19:50:59;3.33;;;3.03;;
9536;SDS011;4807;48.024;11.726;2022-11-15T19:54:10;4.83;;;3.57;;
9536;SDS011;4807;48.024;11.726;2022-11-15T19:57:22;4.93;;;3.47;;
9536;SDS011;4807;48.024;11.726;2022-11-15T20:00:33;5.77;;;4.67;;
9536;SDS011;4807;48.024;11.726;2022-11-15T20:03:42;5.30;;;4.80;;
9536;SDS011;4807;48.024;11.726;2022-11-15T20:06:52;7.00;;;5.63;;
9536;SDS011;4807;48.024;11.726;2022-11-15T20:10:00;6.00;;;5.10;;
9536;SDS011;4807;48.024;11.726;2022-11-15T20:13:10;5.57;;;4.87;;
9536;SDS011;4807;48.024;11.726;2022-11-15T20:16:22;6.03;;;5.53;;
9536;SDS011;4807;48.024;11.726;2022-11-15T20:19:30;5.33;;;4.40;;
9536;SDS011;4807;48.024;11.726;2022-11-15T20:22:41;5.43;;;4.60;;
9536;SDS011;4807;48.024;11.726;2022-11-15T20:25:50;9.90;;;7.33;;
9536;SDS011;4807;48.024;11.726;2022-11-15T20:28:59;5.20;;;4.70;;
9536;SDS011;4807;48.024;11.726;2022-11-15T20:32:10;10.93;;;6.87;;
9536;SDS011;4807;48.024;11.726;2022-11-15T20:35:19;8.43;;;5.67;;
9536;SDS011;4807;48.024;11.726;2022-11-15T20:38:28;5.83;;;4.13;;
9536;SDS011;4807;48.024;11.726;2022-11-15T20:41:37;7.20;;;5.03;;